createdAt,value
2022-10-04T00:00:36.935Z,100326.03
2022-10-04T00:03:26.896Z,100326.50
2022-10-04T00:05:56.507Z,100324.81
2022-10-04T00:08:27.408Z,100324.41
2022-10-04T00:11:13.241Z,100324.56
2022-10-04T00:13:40.890Z,100321.19
2022-10-04T00:16:08.988Z,100328.75
2022-10-04T00:18:41.333Z,100331.66
2022-10-04T00:21:09.202Z,100336.78
2022-10-04T00:23:37.165Z,100332.50
2022-10-04T00:26:08.080Z,100343.44
2022-10-04T00:28:36.003Z,100347.22
2022-10-04T00:31:20.916Z,100348.88
2022-10-04T00:33:50.631Z,100346.09
2022-10-04T00:36:24.242Z,100343.94
2022-10-04T00:39:04.623Z,100352.06
2022-10-04T00:41:47.407Z,100353.53
2022-10-04T00:44:28.466Z,100344.88
2022-10-04T00:46:57.207Z,100344.03
2022-10-04T00:49:26.884Z,100347.16
2022-10-04T00:52:15.895Z,100340.81
2022-10-04T00:55:05.415Z,100348.09
2022-10-04T00:57:38.386Z,100347.63
2022-10-04T01:00:17.821Z,100343.63
2022-10-04T01:03:14.971Z,100351.78
2022-10-04T01:05:44.800Z,100345.06
2022-10-04T01:08:23.358Z,100346.09
2022-10-04T01:10:52.396Z,100343.75
2022-10-04T01:13:23.563Z,100347.00
2022-10-04T01:16:02.948Z,100349.75
2022-10-04T01:18:34.525Z,100346.53
2022-10-04T01:21:09.250Z,100358.94
2022-10-04T01:23:43.601Z,100346.34
2022-10-04T01:26:26.817Z,100352.00
2022-10-04T01:28:56.297Z,100348.25
2022-10-04T01:31:24.026Z,100351.34
2022-10-04T01:33:51.920Z,100353.63
2022-10-04T01:36:20.478Z,100357.78
2022-10-04T01:38:48.368Z,100357.31
2022-10-04T01:41:18.304Z,100362.31
2022-10-04T01:43:47.914Z,100355.53
2022-10-04T01:46:19.573Z,100348.00
2022-10-04T01:48:48.248Z,100360.81
2022-10-04T01:51:21.237Z,100363.34
2022-10-04T01:53:54.020Z,100359.78
2022-10-04T01:56:25.968Z,100364.09
2022-10-04T01:58:56.300Z,100364.09
2022-10-04T02:01:44.240Z,100372.50
2022-10-04T02:04:22.038Z,100376.44
2022-10-04T02:06:56.461Z,100372.69
2022-10-04T02:09:26.823Z,100377.88
2022-10-04T02:11:58.617Z,100379.09
2022-10-04T02:14:28.325Z,100368.94
2022-10-04T02:16:56.416Z,100367.66
2022-10-04T02:19:27.660Z,100368.69
2022-10-04T02:21:55.360Z,100367.94
2022-10-04T02:24:23.061Z,100371.34
2022-10-04T02:26:51.955Z,100363.53
2022-10-04T02:29:22.579Z,100360.16
2022-10-04T02:32:08.692Z,100365.50
2022-10-04T02:34:36.766Z,100365.81
2022-10-04T02:37:04.815Z,100368.34
2022-10-04T02:39:34.329Z,100352.94
2022-10-04T02:42:04.402Z,100353.13
2022-10-04T02:44:41.269Z,100346.84
2022-10-04T02:47:11.758Z,100357.94
2022-10-04T02:49:53.346Z,100370.38
2022-10-04T02:52:37.293Z,100374.91
2022-10-04T02:55:11.075Z,100382.09
2022-10-04T02:57:41.864Z,100384.53
2022-10-04T03:00:12.554Z,100380.03
2022-10-04T03:02:41.679Z,100378.94
2022-10-04T03:05:11.240Z,100380.66
2022-10-04T03:07:38.966Z,100371.94
2022-10-04T03:10:12.195Z,100378.78
2022-10-04T03:12:40.280Z,100386.28
2022-10-04T03:15:11.932Z,100390.22
2022-10-04T03:17:41.954Z,100388.72
2022-10-04T03:20:11.336Z,100393.50
2022-10-04T03:22:42.580Z,100392.81
2022-10-04T03:25:29.796Z,100400.16
2022-10-04T03:28:00.315Z,100402.59
2022-10-04T03:30:28.047Z,100403.31
2022-10-04T03:32:56.872Z,100410.97
2022-10-04T03:35:38.117Z,100413.03
2022-10-04T03:38:07.042Z,100417.59
2022-10-04T03:40:34.825Z,100412.00
2022-10-04T03:43:02.472Z,100419.13
2022-10-04T03:45:30.098Z,100419.97
2022-10-04T03:48:01.387Z,100415.38
2022-10-04T03:50:30.025Z,100416.41
2022-10-04T03:53:06.133Z,100422.53
2022-10-04T03:55:36.048Z,100430.31
2022-10-04T03:58:06.967Z,100433.72
2022-10-04T04:00:37.158Z,100424.16
2022-10-04T04:03:06.310Z,100435.31
2022-10-04T04:05:44.921Z,100437.03
2022-10-04T04:08:38.628Z,100441.56
2022-10-04T04:11:07.376Z,100440.16
2022-10-04T04:13:46.710Z,100443.34
2022-10-04T04:16:15.018Z,100439.88
2022-10-04T04:18:43.953Z,100449.00
2022-10-04T04:21:14.394Z,100453.91
2022-10-04T04:23:43.785Z,100450.06
2022-10-04T04:26:17.922Z,100453.28
2022-10-04T04:28:49.270Z,100457.59
2022-10-04T04:31:21.301Z,100459.97
2022-10-04T04:34:00.817Z,100469.94
2022-10-04T04:36:30.776Z,100478.22
2022-10-04T04:39:34.586Z,100470.97
2022-10-04T04:42:12.684Z,100479.06
2022-10-04T04:44:50.085Z,100479.84
2022-10-04T04:47:36.136Z,100477.03
2022-10-04T04:50:06.192Z,100479.19
2022-10-04T04:52:34.034Z,100477.88
2022-10-04T04:55:01.732Z,100488.09
2022-10-04T04:57:29.679Z,100489.03
2022-10-04T04:59:59.045Z,100502.19
2022-10-04T05:02:35.245Z,100506.47
2022-10-04T05:05:22.234Z,100507.22
2022-10-04T05:07:50.674Z,100513.41
2022-10-04T05:10:32.425Z,100522.50
2022-10-04T05:13:01.549Z,100526.03
2022-10-04T05:15:33.616Z,100531.75
2022-10-04T05:18:02.577Z,100528.47
2022-10-04T05:20:31.670Z,100530.88
2022-10-04T05:22:59.328Z,100535.41
2022-10-04T05:25:32.524Z,100544.69
2022-10-04T05:28:00.239Z,100537.03
2022-10-04T05:30:48.943Z,100549.06
2022-10-04T05:33:22.822Z,100549.09
2022-10-04T05:36:12.219Z,100557.16
2022-10-04T05:38:42.233Z,100552.22
2022-10-04T05:41:22.585Z,100557.97
2022-10-04T05:43:50.553Z,100568.91
2022-10-04T05:46:19.424Z,100574.13
2022-10-04T05:48:49.541Z,100575.69
2022-10-04T05:51:32.252Z,100575.53
2022-10-04T05:54:03.086Z,100575.97
2022-10-04T05:56:30.758Z,100572.91
2022-10-04T05:59:02.213Z,100580.66
2022-10-04T06:02:09.238Z,100594.16
2022-10-04T06:05:00.525Z,100593.91
2022-10-04T06:07:34.108Z,100597.75
2022-10-04T06:10:39.453Z,100593.72
2022-10-04T06:13:41.420Z,100594.66
2022-10-04T06:16:12.429Z,100607.66
2022-10-04T06:19:09.183Z,100599.63
2022-10-04T06:21:40.424Z,100599.34
2022-10-04T06:24:11.006Z,100593.13
2022-10-04T06:26:44.579Z,100604.69
2022-10-04T06:29:18.035Z,100600.94
2022-10-04T06:32:26.784Z,100607.00
2022-10-04T06:35:14.314Z,100606.78
2022-10-04T06:38:23.737Z,100605.91
2022-10-04T06:41:09.136Z,100602.84
2022-10-04T06:43:42.436Z,100605.44
2022-10-04T06:46:31.474Z,100611.16
2022-10-04T06:49:11.807Z,100612.88
2022-10-04T06:52:03.978Z,100607.63
2022-10-04T06:54:40.776Z,100619.84
2022-10-04T06:57:31.824Z,100622.81
2022-10-04T07:00:19.484Z,100621.81
2022-10-04T07:03:01.612Z,100632.50
2022-10-04T07:05:46.243Z,100618.63
2022-10-04T07:08:34.222Z,100614.69
2022-10-04T07:11:14.164Z,100620.22
2022-10-04T07:14:04.620Z,100633.69
2022-10-04T07:17:01.091Z,100628.41
2022-10-04T07:19:33.850Z,100634.34
2022-10-04T07:22:07.091Z,100634.34
2022-10-04T07:24:43.483Z,100645.50
2022-10-04T07:27:14.434Z,100638.38
2022-10-04T07:29:42.928Z,100648.50
2022-10-04T07:32:38.889Z,100649.38
2022-10-04T07:35:17.047Z,100647.72
2022-10-04T07:38:02.187Z,100649.13
2022-10-04T07:40:41.388Z,100650.16
2022-10-04T07:43:23.232Z,100645.16
2022-10-04T07:45:51.755Z,100638.22
2022-10-04T07:48:23.566Z,100643.88
2022-10-04T07:51:24.717Z,100642.16
2022-10-04T07:54:21.791Z,100641.78
2022-10-04T07:57:04.331Z,100645.81
2022-10-04T07:59:44.238Z,100652.34
2022-10-04T08:02:46.653Z,100655.75
2022-10-04T08:05:32.726Z,100656.16
2022-10-04T08:08:22.390Z,100654.66
2022-10-04T08:11:17.551Z,100649.75
2022-10-04T08:14:20.580Z,100637.53
2022-10-04T08:16:51.409Z,100666.50
2022-10-04T08:19:57.889Z,100664.34
2022-10-04T08:22:55.511Z,100667.72
2022-10-04T08:25:38.056Z,100658.38
2022-10-04T08:28:39.663Z,100671.16
2022-10-04T08:31:29.829Z,100663.69
2022-10-04T08:34:13.086Z,100681.66
2022-10-04T08:37:03.338Z,100678.53
2022-10-04T08:39:48.989Z,100677.69
2022-10-04T08:42:29.942Z,100685.09
2022-10-04T08:45:35.004Z,100677.84
2022-10-04T08:48:31.220Z,100683.97
2022-10-04T08:51:20.465Z,100699.81
2022-10-04T08:54:04.146Z,100694.13
2022-10-04T08:57:11.194Z,100703.63
2022-10-04T08:59:58.132Z,100697.69
2022-10-04T09:02:37.979Z,100703.84
2022-10-04T09:05:39.244Z,100708.22
2022-10-04T09:08:34.884Z,100715.66
2022-10-04T09:11:07.029Z,100719.25
2022-10-04T09:13:38.768Z,100725.00
2022-10-04T09:16:15.850Z,100715.03
2022-10-04T09:18:51.404Z,100714.56
2022-10-04T09:21:29.174Z,100724.47
2022-10-04T09:23:56.748Z,100732.09
2022-10-04T09:26:36.388Z,100727.16
2022-10-04T09:29:22.348Z,100737.94
2022-10-04T09:32:02.029Z,100732.72
2022-10-04T09:34:51.804Z,100730.31
2022-10-04T09:37:37.602Z,100739.88
2022-10-04T09:40:34.840Z,100734.38
2022-10-04T09:43:06.172Z,100740.41
2022-10-04T09:46:03.895Z,100747.84
2022-10-04T09:48:53.757Z,100738.19
2022-10-04T09:51:23.424Z,100748.34
2022-10-04T09:54:45.826Z,100749.03
2022-10-04T09:57:45.889Z,100743.34
2022-10-04T10:01:05.687Z,100759.06
2022-10-04T10:04:10.969Z,100761.63
2022-10-04T10:06:46.499Z,100761.63
2022-10-04T10:09:47.507Z,100758.59
2022-10-04T10:13:14.988Z,100764.28
2022-10-04T10:22:48.382Z,100774.06
2022-10-04T10:25:52.675Z,100767.50
2022-10-04T10:28:26.262Z,100762.81
2022-10-04T10:31:18.670Z,100756.03
2022-10-04T10:34:11.639Z,100769.94
2022-10-04T10:36:54.330Z,100779.00
2022-10-04T10:39:52.196Z,100768.84
2022-10-04T10:42:38.053Z,100769.53
2022-10-04T10:45:05.746Z,100791.53
2022-10-04T10:47:42.577Z,100784.13
2022-10-04T10:50:28.027Z,100783.81
2022-10-04T10:53:25.356Z,100786.38
2022-10-04T10:56:13.529Z,100786.88
2022-10-04T10:58:54.391Z,100791.31
2022-10-04T11:01:25.034Z,100792.03
2022-10-04T11:04:26.545Z,100789.38
2022-10-04T11:07:18.633Z,100792.38
2022-10-04T11:10:21.158Z,100800.34
2022-10-04T11:13:07.628Z,100800.31
2022-10-04T11:16:07.950Z,100806.31
2022-10-04T11:18:57.946Z,100803.91
2022-10-04T11:22:07.582Z,100821.31
2022-10-04T11:24:43.479Z,100818.34
2022-10-04T11:27:19.524Z,100820.22
2022-10-04T11:30:26.461Z,100819.56
2022-10-04T11:33:19.185Z,100822.31
2022-10-04T11:35:58.640Z,100827.16
2022-10-04T11:38:51.359Z,100834.72
2022-10-04T11:41:23.424Z,100841.03
2022-10-04T11:44:16.005Z,100842.31
2022-10-04T11:47:01.471Z,100839.22
2022-10-04T11:49:44.238Z,100841.34
2022-10-04T11:52:37.261Z,100845.56
2022-10-04T11:55:10.914Z,100855.94
2022-10-04T11:57:44.431Z,100857.22
2022-10-04T12:00:20.482Z,100857.41
2022-10-04T12:03:14.009Z,100869.22
2022-10-04T12:06:08.432Z,100863.19
2022-10-04T12:09:06.108Z,100873.22
2022-10-04T12:12:08.456Z,100876.19
2022-10-04T12:14:54.701Z,100873.66
2022-10-04T12:17:41.199Z,100874.13
2022-10-04T12:20:40.644Z,100881.06
2022-10-04T12:23:34.449Z,100876.44
2022-10-04T12:26:34.051Z,100875.84
2022-10-04T12:29:10.558Z,100870.03
2022-10-04T12:31:43.249Z,100890.38
2022-10-04T12:34:16.812Z,100887.22
2022-10-04T12:37:26.027Z,100892.00
2022-10-04T12:40:03.613Z,100889.16
2022-10-04T12:42:47.061Z,100894.06
2022-10-04T12:45:23.633Z,100888.50
2022-10-04T12:48:33.160Z,100896.72
2022-10-04T12:51:38.381Z,100914.16
2022-10-04T12:54:26.658Z,100912.38
2022-10-04T12:57:33.405Z,100925.53
2022-10-04T13:00:19.525Z,100918.56
2022-10-04T13:03:33.666Z,100918.53
2022-10-04T13:06:06.965Z,100921.88
2022-10-04T13:08:40.363Z,100924.88
2022-10-04T13:11:07.925Z,100921.66
2022-10-04T13:13:53.320Z,100924.81
2022-10-04T13:19:35.650Z,100929.66
2022-10-04T13:22:06.608Z,100930.28
2022-10-04T13:24:56.941Z,100942.47
2022-10-04T13:27:51.145Z,100944.16
2022-10-04T13:30:23.713Z,100952.53
2022-10-04T13:33:14.351Z,100954.63
2022-10-04T13:35:58.251Z,100936.00
2022-10-04T13:38:59.447Z,100947.88
2022-10-04T13:41:58.033Z,100954.59
2022-10-04T13:44:47.467Z,100951.66
2022-10-04T13:47:34.468Z,100950.81
2022-10-04T13:50:09.779Z,100963.25
2022-10-04T13:53:08.569Z,100957.53
2022-10-04T13:56:08.708Z,100959.44
2022-10-04T13:58:39.352Z,100959.50
2022-10-04T14:01:33.247Z,100964.13
2022-10-04T14:04:27.200Z,100970.25
2022-10-04T14:07:17.640Z,100970.25
2022-10-04T14:10:17.032Z,100973.53
2022-10-04T14:12:56.246Z,100972.47
2022-10-04T14:15:42.524Z,100983.13
2022-10-04T14:18:47.603Z,100980.16
2022-10-04T14:22:03.970Z,100983.19
2022-10-04T14:25:08.727Z,100986.72
2022-10-04T14:28:14.941Z,100988.50
2022-10-04T14:31:02.081Z,100992.84
2022-10-04T14:34:14.589Z,100990.06
2022-10-04T14:36:56.996Z,100994.63
2022-10-04T14:40:01.845Z,100990.63
2022-10-04T14:43:15.153Z,101007.72
2022-10-04T14:45:55.005Z,101003.09
2022-10-04T14:48:43.936Z,101007.06
2022-10-04T14:51:29.564Z,101011.38
2022-10-04T14:54:10.617Z,101017.81
2022-10-04T14:56:58.263Z,101009.91
2022-10-04T14:59:36.056Z,101017.44
2022-10-04T15:02:03.835Z,101026.25
2022-10-04T15:05:12.531Z,101035.31
2022-10-04T15:07:49.362Z,101039.56
2022-10-04T15:10:24.745Z,101038.72
2022-10-04T15:13:21.691Z,101051.25
2022-10-04T15:15:55.121Z,101057.63
2022-10-04T15:18:47.095Z,101062.47
2022-10-04T15:21:44.692Z,101063.00
2022-10-04T15:24:18.678Z,101076.13
2022-10-04T15:27:20.324Z,101080.25
2022-10-04T15:29:52.304Z,101088.75
2022-10-04T15:32:24.452Z,101091.97
2022-10-04T15:35:14.150Z,101094.31
2022-10-04T15:37:48.768Z,101098.00
2022-10-04T15:40:22.374Z,101105.13
2022-10-04T15:43:15.386Z,101115.97
2022-10-04T15:46:09.730Z,101112.78
2022-10-04T15:48:51.910Z,101126.53
2022-10-04T15:51:19.552Z,101122.38
2022-10-04T15:54:26.436Z,101134.13
2022-10-04T15:57:24.217Z,101134.25
2022-10-04T16:00:29.054Z,101151.34
2022-10-04T16:03:17.913Z,101155.00
2022-10-04T16:06:20.488Z,101150.44
2022-10-04T16:09:18.752Z,101155.88
2022-10-04T16:12:20.678Z,101169.06
2022-10-04T16:15:22.162Z,101172.47
2022-10-04T16:17:59.279Z,101171.81
2022-10-04T16:20:56.265Z,101175.03
2022-10-04T16:23:28.541Z,101177.31
2022-10-04T16:25:57.831Z,101175.59
2022-10-04T16:28:44.061Z,101173.91
2022-10-04T16:31:23.410Z,101171.69
2022-10-04T16:34:03.118Z,101160.63
2022-10-04T16:36:43.393Z,101164.28
2022-10-04T16:39:30.202Z,101162.97
2022-10-04T16:42:04.520Z,101161.78
2022-10-04T16:44:53.946Z,101155.69
2022-10-04T16:47:47.733Z,101157.59
2022-10-04T16:50:36.423Z,101155.22
2022-10-04T16:53:21.220Z,101150.28
2022-10-04T16:55:53.464Z,101156.06
2022-10-04T16:58:27.203Z,101140.25
2022-10-04T17:01:24.099Z,101139.91
2022-10-04T17:04:03.724Z,101142.13
2022-10-04T17:06:37.864Z,101145.56
2022-10-04T17:09:15.667Z,101139.75
2022-10-04T17:12:06.139Z,101136.16
2022-10-04T17:14:39.842Z,101143.16
2022-10-04T17:17:40.078Z,101144.84
2022-10-04T17:20:41.105Z,101138.69
2022-10-04T17:23:43.992Z,101152.28
2022-10-04T17:26:17.494Z,101147.00
2022-10-04T17:29:22.149Z,101154.66
2022-10-04T17:32:08.214Z,101151.91
2022-10-04T17:34:50.242Z,101156.81
2022-10-04T17:37:17.929Z,101151.88
2022-10-04T17:40:03.080Z,101152.03
2022-10-04T17:42:56.893Z,101153.34
2022-10-04T17:45:56.871Z,101157.91
2022-10-04T17:48:48.163Z,101159.03
2022-10-04T17:51:52.502Z,101159.16
2022-10-04T17:54:51.492Z,101168.44
2022-10-04T17:57:25.984Z,101159.25
2022-10-04T18:00:18.038Z,101159.72
2022-10-04T18:03:01.084Z,101161.72
2022-10-04T18:05:41.414Z,101168.94
2022-10-04T18:08:27.094Z,101171.47
2022-10-04T18:10:58.854Z,101166.66
2022-10-04T18:13:37.755Z,101169.69
2022-10-04T18:16:23.686Z,101172.31
2022-10-04T18:18:51.433Z,101174.53
2022-10-04T18:21:30.536Z,101173.28
2022-10-04T18:23:59.249Z,101173.22
2022-10-04T18:26:32.347Z,101169.09
2022-10-04T18:29:01.406Z,101173.44
2022-10-04T18:31:30.390Z,101174.44
2022-10-04T18:34:18.275Z,101183.44
2022-10-04T18:36:53.591Z,101177.38
2022-10-04T18:39:22.970Z,101180.19
2022-10-04T18:41:58.235Z,101179.16
2022-10-04T18:44:31.227Z,101188.16
2022-10-04T18:47:00.040Z,101193.41
2022-10-04T18:49:29.618Z,101192.25
2022-10-04T18:52:12.666Z,101193.25
2022-10-04T18:54:49.055Z,101200.53
2022-10-04T18:57:32.015Z,101204.44
2022-10-04T19:00:31.124Z,101200.13
2022-10-04T19:03:31.334Z,101207.91
2022-10-04T19:06:24.801Z,101204.34
2022-10-04T19:09:04.521Z,101209.59
2022-10-04T19:11:39.457Z,101212.88
2022-10-04T19:14:25.884Z,101209.97
2022-10-04T19:17:03.371Z,101207.56
2022-10-04T19:19:42.368Z,101207.44
2022-10-04T19:22:16.093Z,101209.47
2022-10-04T19:25:22.375Z,101207.91
2022-10-04T19:28:00.944Z,101223.06
2022-10-04T19:30:54.629Z,101217.63
2022-10-04T19:33:25.980Z,101220.00
2022-10-04T19:35:56.371Z,101220.00
2022-10-04T19:38:51.809Z,101213.72
2022-10-04T19:41:35.070Z,101208.97
2022-10-04T19:44:11.426Z,101216.44
2022-10-04T19:46:43.908Z,101217.44
2022-10-04T19:49:19.241Z,101214.72
2022-10-04T19:51:52.326Z,101213.34
2022-10-04T19:54:29.500Z,101218.78
2022-10-04T19:56:57.881Z,101221.16
2022-10-04T19:59:41.647Z,101224.59
2022-10-04T20:02:12.964Z,101219.53
2022-10-04T20:04:42.447Z,101222.63
2022-10-04T20:07:27.629Z,101227.72
2022-10-04T20:09:56.435Z,101217.56
2022-10-04T20:12:37.921Z,101218.06
2022-10-04T20:15:17.703Z,101225.38
2022-10-04T20:17:48.061Z,101235.00
2022-10-04T20:20:38.484Z,101233.13
2022-10-04T20:23:09.492Z,101238.09
2022-10-04T20:25:46.289Z,101239.75
2022-10-04T20:28:26.597Z,101243.88
2022-10-04T20:31:00.046Z,101236.38
2022-10-04T20:33:33.956Z,101240.63
2022-10-04T20:36:11.587Z,101242.41
2022-10-04T20:38:46.145Z,101244.94
2022-10-04T20:41:29.319Z,101249.84
2022-10-04T20:44:04.200Z,101250.69
2022-10-04T20:46:38.387Z,101244.75
2022-10-04T20:49:14.736Z,101249.66
2022-10-04T20:51:49.757Z,101251.31
2022-10-04T20:54:19.046Z,101255.50
2022-10-04T20:56:48.159Z,101252.63
2022-10-04T20:59:16.941Z,101247.91
2022-10-04T21:02:00.912Z,101247.25
2022-10-04T21:04:33.270Z,101256.25
2022-10-04T21:07:06.153Z,101246.63
2022-10-04T21:09:35.688Z,101245.63
2022-10-04T21:12:05.632Z,101247.41
2022-10-04T21:14:37.947Z,101258.66
2022-10-04T21:17:28.403Z,101256.78
2022-10-04T21:19:57.282Z,101261.78
2022-10-04T21:22:31.089Z,101260.97
2022-10-04T21:24:59.968Z,101265.78
2022-10-04T21:27:28.687Z,101266.63
2022-10-04T21:29:56.933Z,101263.19
2022-10-04T21:32:25.187Z,101254.56
2022-10-04T21:34:54.466Z,101264.66
2022-10-04T21:37:24.523Z,101261.94
2022-10-04T21:39:52.186Z,101265.03
2022-10-04T21:42:19.953Z,101262.00
2022-10-04T21:44:47.821Z,101269.84
2022-10-04T21:47:15.867Z,101272.69
2022-10-04T21:49:43.645Z,101275.31
2022-10-04T21:52:11.522Z,101275.81
2022-10-04T21:54:39.169Z,101269.34
2022-10-04T21:57:07.342Z,101284.53
2022-10-04T21:59:35.085Z,101280.41
2022-10-04T22:02:02.903Z,101278.19
2022-10-04T22:04:30.963Z,101279.72
2022-10-04T22:06:58.577Z,101275.66
2022-10-04T22:09:26.573Z,101280.75
2022-10-04T22:11:54.338Z,101285.50
2022-10-04T22:14:21.992Z,101285.34
2022-10-04T22:16:50.395Z,101279.00
2022-10-04T22:19:18.643Z,101277.69
2022-10-04T22:21:46.728Z,101282.75
2022-10-04T22:24:17.125Z,101279.72
2022-10-04T22:26:45.062Z,101290.25
2022-10-04T22:29:14.002Z,101284.31
2022-10-04T22:31:44.103Z,101293.13
2022-10-04T22:34:16.794Z,101289.69
2022-10-04T22:36:44.731Z,101292.06
2022-10-04T22:39:17.312Z,101297.34
2022-10-04T22:41:48.693Z,101304.81
2022-10-04T22:44:19.122Z,101296.28
2022-10-04T22:46:52.198Z,101293.75
2022-10-04T22:49:25.602Z,101295.75
2022-10-04T22:51:55.121Z,101302.38
2022-10-04T22:54:28.103Z,101299.31
2022-10-04T22:56:56.623Z,101302.84
2022-10-04T22:59:33.766Z,101283.78
2022-10-04T23:02:02.272Z,101294.13
2022-10-04T23:04:30.109Z,101292.91
2022-10-04T23:06:58.445Z,101290.19
2022-10-04T23:09:26.539Z,101294.25
2022-10-04T23:11:54.191Z,101294.03
2022-10-04T23:14:21.948Z,101292.03
2022-10-04T23:16:50.751Z,101285.72
2022-10-04T23:19:21.675Z,101286.59
2022-10-04T23:21:52.712Z,101290.69
2022-10-04T23:24:21.800Z,101299.53
2022-10-04T23:26:53.144Z,101296.97
2022-10-04T23:29:27.869Z,101298.72
2022-10-04T23:31:55.886Z,101298.56
2022-10-04T23:34:33.553Z,101303.84
2022-10-04T23:37:01.197Z,101301.94
2022-10-04T23:39:31.364Z,101303.28
2022-10-04T23:42:00.633Z,101299.47
2022-10-04T23:44:35.578Z,101295.38
2022-10-04T23:47:03.512Z,101294.69
2022-10-04T23:49:31.292Z,101293.53
2022-10-04T23:52:01.204Z,101306.31
2022-10-04T23:54:29.079Z,101297.13
2022-10-04T23:56:57.144Z,101296.31
2022-10-04T23:59:24.781Z,101296.50
